Time;durP1;ratioP1;P1;durP2;ratioP2;P2;SDS_P1;SDS_P2;PMS_P1;PMS_P2;Temp;Humidity;BMP_temperature;BMP_pressure;BME280_temperature;BME280_humidity;BME280_pressure;Samples;Min_cycle;Max_cycle;Signal;HPM_P1;HPM_P2
2023/09/13 00:00:13;;;;;;;145.02;72.00;;;;;;;-147.65;100.00;57646.63;10425314;28;20136;-76
2023/09/13 00:05:14;;;;;;;146.23;72.28;;;;;;;-147.65;100.00;57646.63;10449672;28;20076;-77
2023/09/13 00:10:15;;;;;;;161.15;76.07;;;;;;;-147.65;100.00;57646.63;10419170;28;20041;-76
2023/09/13 00:15:15;;;;;;;148.20;74.50;;;;;;;-147.65;100.00;57646.63;10458691;28;20566;-77
2023/09/13 00:20:16;;;;;;;145.57;71.18;;;;;;;-147.65;100.00;57646.63;10417022;28;20045;-77
2023/09/13 00:25:16;;;;;;;168.95;78.78;;;;;;;-147.65;100.00;57646.63;10431069;28;20547;-77
2023/09/13 00:30:17;;;;;;;179.32;80.55;;;;;;;-147.65;100.00;57646.63;10448160;28;20037;-77
2023/09/13 00:35:17;;;;;;;177.50;84.68;;;;;;;-147.65;100.00;57646.63;10391513;28;20103;-77
2023/09/13 00:40:18;;;;;;;186.57;89.88;;;;;;;-147.65;100.00;57646.63;10432292;28;20114;-77
2023/09/13 00:45:19;;;;;;;195.32;89.30;;;;;;;-147.65;100.00;57646.63;10416733;28;20041;-78
2023/09/13 00:50:20;;;;;;;224.27;97.45;;;;;;;-147.65;100.00;57646.63;10463899;28;20397;-77
2023/09/13 00:55:22;;;;;;;213.77;92.88;;;;;;;-147.65;100.00;57646.63;10417882;28;20099;-77
2023/09/13 01:00:24;;;;;;;209.97;95.13;;;;;;;-147.65;100.00;57646.63;10443028;28;20063;-77
2023/09/13 01:05:24;;;;;;;;;;;;;;;-147.65;100.00;57646.63;10394851;28;20110;-78
2023/09/13 01:10:25;;;;;;;200.70;93.53;;;;;;;-147.65;100.00;57646.63;10421877;28;20062;-77
2023/09/13 01:15:27;;;;;;;202.10;90.88;;;;;;;-147.65;100.00;57646.63;10425905;28;20271;-78
2023/09/13 01:20:54;;;;;;;197.38;97.22;;;;;;;-147.65;100.00;57646.63;10452949;28;20034;-78
2023/09/13 01:26:20;;;;;;;198.85;92.25;;;;;;;-147.65;100.00;57646.63;10420817;28;20045;-78
2023/09/13 01:31:21;;;;;;;197.98;93.65;;;;;;;-147.65;100.00;57646.63;10445259;28;20033;-78
2023/09/13 01:36:21;;;;;;;191.00;82.90;;;;;;;-147.65;100.00;57646.63;10431380;28;20034;-78
2023/09/13 01:41:31;;;;;;;179.10;84.50;;;;;;;-147.65;100.00;57646.63;10470912;28;20519;-77
2023/09/13 01:46:35;;;;;;;217.40;92.22;;;;;;;-147.65;100.00;57646.63;10425819;28;20041;-77
2023/09/13 01:51:35;;;;;;;192.90;91.75;;;;;;;-147.65;100.00;57646.63;10424500;28;20137;-77
2023/09/13 01:56:36;;;;;;;208.10;93.40;;;;;;;-147.65;100.00;57646.63;10433151;28;20119;-79
2023/09/13 02:01:36;;;;;;;222.05;96.82;;;;;;;-147.65;100.00;57646.63;10407857;28;20033;-78
2023/09/13 02:06:37;;;;;;;220.90;94.93;;;;;;;-147.65;100.00;57646.63;10457572;28;20057;-79
2023/09/13 02:11:37;;;;;;;241.40;112.75;;;;;;;-147.65;100.00;57646.63;10434502;28;20366;-77
2023/09/13 02:16:38;;;;;;;254.63;118.13;;;;;;;-147.65;100.00;57646.63;10444153;28;20041;-78
2023/09/13 02:21:40;;;;;;;303.95;127.40;;;;;;;-147.65;100.00;57646.63;10431093;28;20053;-78
2023/09/13 02:26:41;;;;;;;267.10;119.28;;;;;;;-147.65;100.00;57646.63;10453893;28;20044;-78
2023/09/13 02:31:41;;;;;;;291.90;121.35;;;;;;;-147.65;100.00;57646.63;10461840;28;20068;-79
2023/09/13 02:36:42;;;;;;;288.27;122.07;;;;;;;-147.65;100.00;57646.63;10467500;28;20190;-77
2023/09/13 02:41:43;;;;;;;272.50;120.80;;;;;;;-147.65;100.00;57646.63;10463536;28;20129;-79
2023/09/13 02:46:43;;;;;;;275.63;120.82;;;;;;;-147.65;100.00;57646.63;10467661;28;20101;-78
2023/09/13 02:51:45;;;;;;;257.02;111.38;;;;;;;-147.65;100.00;57646.63;10465270;28;20634;-79
2023/09/13 02:56:46;;;;;;;289.07;123.83;;;;;;;-147.65;100.00;57646.63;10466273;28;20424;-78
2023/09/13 03:01:49;;;;;;;256.05;111.63;;;;;;;-147.65;100.00;57646.63;10489688;28;20091;-79
2023/09/13 03:06:49;;;;;;;265.92;123.85;;;;;;;-147.65;100.00;57646.63;10470565;28;20397;-79
2023/09/13 03:11:50;;;;;;;260.70;118.82;;;;;;;-147.65;100.00;57646.63;10507904;28;20123;-78
2023/09/13 03:16:50;;;;;;;258.17;113.18;;;;;;;-147.65;100.00;57646.63;10475518;28;20147;-78
2023/09/13 03:21:51;;;;;;;231.25;103.75;;;;;;;-147.65;100.00;57646.63;10472484;28;20090;-78
2023/09/13 03:26:51;;;;;;;214.52;104.15;;;;;;;-147.65;100.00;57646.63;10462562;28;20817;-77
2023/09/13 03:31:52;;;;;;;233.38;97.75;;;;;;;-147.65;100.00;57646.63;10468795;28;20536;-77
2023/09/13 03:36:54;;;;;;;211.85;98.47;;;;;;;-147.65;100.00;57646.63;10460759;28;20519;-78
2023/09/13 03:41:56;;;;;;;221.05;99.32;;;;;;;-147.65;100.00;57646.63;10468436;28;20032;-78
2023/09/13 03:46:56;;;;;;;;;;;;;;;-147.65;100.00;57646.63;10476607;28;20040;-78
2023/09/13 03:51:57;;;;;;;181.60;83.77;;;;;;;-147.65;100.00;57646.63;10476444;28;19926;-77
2023/09/13 03:56:57;;;;;;;175.73;87.45;;;;;;;-147.65;100.00;57646.63;10447179;28;20342;-77
2023/09/13 04:01:58;;;;;;;162.20;79.57;;;;;;;-147.65;100.00;57646.63;10494440;28;20051;-76
2023/09/13 04:06:58;;;;;;;176.43;81.00;;;;;;;-147.65;100.00;57646.63;10462648;28;20036;-77
2023/09/13 04:12:02;;;;;;;173.13;83.35;;;;;;;-147.65;100.00;57646.63;10459926;28;20036;-77
2023/09/13 04:17:03;;;;;;;177.63;81.75;;;;;;;-147.65;100.00;57646.63;10449494;28;20050;-77
2023/09/13 04:22:03;;;;;;;182.02;87.55;;;;;;;-147.65;100.00;57646.63;10413537;28;20063;-77
2023/09/13 04:27:04;;;;;;;164.93;80.88;;;;;;;-147.65;100.00;57646.63;10400008;28;20038;-78
2023/09/13 04:32:05;;;;;;;166.90;83.88;;;;;;;-147.65;100.00;57646.63;10474029;28;20048;-77
2023/09/13 04:37:06;;;;;;;171.43;86.40;;;;;;;-147.65;100.00;57646.63;10416667;28;20397;-77
2023/09/13 04:42:06;;;;;;;165.93;81.65;;;;;;;-147.65;100.00;57646.63;10404202;28;20355;-78
2023/09/13 04:47:13;;;;;;;183.38;84.95;;;;;;;-147.65;100.00;57646.63;10414619;28;20493;-78
2023/09/13 04:52:14;;;;;;;179.93;80.45;;;;;;;-147.65;100.00;57646.63;10418039;28;20030;-80
2023/09/13 04:57:22;;;;;;;173.23;81.90;;;;;;;-147.65;100.00;57646.63;10430748;28;20048;-78
2023/09/13 05:02:26;;;;;;;174.15;84.45;;;;;;;-147.65;100.00;57646.63;10439837;28;20037;-78
2023/09/13 05:07:27;;;;;;;174.60;81.18;;;;;;;-147.65;100.00;57646.63;10439356;28;20396;-79
2023/09/13 05:12:31;;;;;;;198.10;82.38;;;;;;;-147.65;100.00;57646.63;10476096;28;20029;-78
2023/09/13 05:17:31;;;;;;;157.57;81.60;;;;;;;-147.65;100.00;57646.63;10466905;28;20036;-78
2023/09/13 05:22:33;;;;;;;172.45;82.82;;;;;;;-147.65;100.00;57646.63;10463304;28;20511;-77
2023/09/13 05:27:33;;;;;;;172.20;74.20;;;;;;;-147.65;100.00;57646.63;10495013;28;20064;-78
2023/09/13 05:32:34;;;;;;;170.18;76.03;;;;;;;-147.65;100.00;57646.63;10474546;28;20463;-78
2023/09/13 05:37:34;;;;;;;153.38;72.25;;;;;;;-147.65;100.00;57646.63;10497253;28;20048;-78
2023/09/13 05:42:35;;;;;;;145.73;66.63;;;;;;;-147.65;100.00;57646.63;10495612;28;20043;-77
2023/09/13 05:47:35;;;;;;;141.70;63.25;;;;;;;-147.65;100.00;57646.63;10459394;28;20044;-78
2023/09/13 05:52:39;;;;;;;149.32;68.00;;;;;;;-147.65;100.00;57646.63;10459071;28;20057;-79
2023/09/13 05:57:39;;;;;;;157.10;68.20;;;;;;;-147.65;100.00;57646.63;10466841;28;20139;-78
2023/09/13 06:02:40;;;;;;;141.25;69.97;;;;;;;-147.65;100.00;57646.63;10455741;28;20037;-79
2023/09/13 06:07:40;;;;;;;177.35;73.90;;;;;;;-147.65;100.00;57646.63;10409403;28;20045;-79
2023/09/13 06:12:41;;;;;;;132.00;68.97;;;;;;;-147.65;100.00;57646.63;10393834;28;20029;-80
2023/09/13 06:17:41;;;;;;;131.10;66.38;;;;;;;-147.65;100.00;57646.63;10424402;28;20044;-80
2023/09/13 06:22:42;;;;;;;118.68;60.13;;;;;;;-147.65;100.00;57646.63;10439433;28;20396;-80
2023/09/13 06:27:43;;;;;;;120.97;59.47;;;;;;;-147.65;100.00;57646.63;10452852;28;20040;-80
2023/09/13 06:32:44;;;;;;;112.03;59.43;;;;;;;-147.65;100.00;57646.63;10434276;28;20037;-79
2023/09/13 06:37:44;;;;;;;99.72;53.67;;;;;;;-147.65;100.00;57646.63;10479416;28;20444;-80
2023/09/13 06:42:45;;;;;;;98.95;52.85;;;;;;;-147.65;100.00;57646.63;10461958;28;20047;-80
2023/09/13 06:47:45;;;;;;;83.20;40.60;;;;;;;-147.65;100.00;57646.63;10455751;28;20051;-79
2023/09/13 06:52:46;;;;;;;56.80;34.00;;;;;;;-147.65;100.00;57646.63;10447023;28;20068;-80
2023/09/13 06:57:48;;;;;;;45.87;29.67;;;;;;;-147.65;100.00;57646.63;10459327;28;20114;-77
2023/09/13 07:02:49;;;;;;;54.15;33.22;;;;;;;-147.65;100.00;57646.63;10453840;28;20041;-76
2023/09/13 07:07:49;;;;;;;45.10;31.33;;;;;;;-147.65;100.00;57646.63;10477507;28;20048;-77
2023/09/13 07:12:50;;;;;;;56.60;34.30;;;;;;;-147.65;100.00;57646.63;10463197;28;20032;-77
2023/09/13 07:17:51;;;;;;;58.57;33.57;;;;;;;-147.65;100.00;57646.63;10473920;28;20488;-78
2023/09/13 07:22:51;;;;;;;54.90;33.60;;;;;;;-147.65;100.00;57646.63;10463193;28;20596;-78
2023/09/13 07:27:52;;;;;;;58.90;33.37;;;;;;;-147.65;100.00;57646.63;10464128;28;20179;-81
2023/09/13 07:32:52;;;;;;;51.35;34.17;;;;;;;-147.65;100.00;57646.63;10459489;28;20072;-81
2023/09/13 07:37:53;;;;;;;63.28;34.28;;;;;;;-147.65;100.00;57646.63;10423109;28;20699;-78
2023/09/13 07:42:53;;;;;;;61.85;33.45;;;;;;;-147.65;100.00;57646.63;10439091;28;20056;-79
2023/09/13 07:47:54;;;;;;;52.38;32.72;;;;;;;-147.65;100.00;57646.63;10443533;28;20562;-78
2023/09/13 07:52:55;;;;;;;62.65;34.38;;;;;;;-147.65;100.00;57646.63;10476106;28;20103;-80
2023/09/13 07:57:55;;;;;;;70.03;42.13;;;;;;;-147.65;100.00;57646.63;10429693;28;20077;-77
2023/09/13 08:02:58;;;;;;;59.75;34.78;;;;;;;-147.65;100.00;57646.63;10447517;28;20040;-77
2023/09/13 08:07:59;;;;;;;59.80;33.30;;;;;;;-147.65;100.00;57646.63;10466950;28;20591;-78
2023/09/13 08:12:59;;;;;;;54.28;33.50;;;;;;;-147.65;100.00;57646.63;10415382;28;20069;-78
2023/09/13 08:18:02;;;;;;;70.78;31.02;;;;;;;-147.65;100.00;57646.63;10417735;28;20037;-80
2023/09/13 08:23:03;;;;;;;41.03;28.05;;;;;;;-147.65;100.00;57646.63;10473957;28;20045;-81
2023/09/13 08:28:04;;;;;;;46.22;29.52;;;;;;;-147.65;100.00;57646.63;10453471;28;20037;-81
2023/09/13 08:33:06;;;;;;;39.17;24.73;;;;;;;-147.65;100.00;57646.63;10446732;28;20044;-82
2023/09/13 08:38:07;;;;;;;40.22;25.45;;;;;;;-147.65;100.00;57646.63;10450906;28;20473;-82
2023/09/13 08:43:09;;;;;;;37.50;23.90;;;;;;;-147.65;100.00;57646.63;10440177;28;20123;-81
2023/09/13 08:48:10;;;;;;;34.58;23.33;;;;;;;-147.65;100.00;57646.63;10471226;28;20044;-81
2023/09/13 08:53:12;;;;;;;37.60;23.43;;;;;;;-147.65;100.00;57646.63;10440534;28;20040;-82
2023/09/13 08:58:12;;;;;;;38.00;22.75;;;;;;;-147.65;100.00;57646.63;10450416;28;20036;-82
2023/09/13 09:03:13;;;;;;;36.77;23.80;;;;;;;-147.65;100.00;57646.63;10441868;28;20070;-83
2023/09/13 09:08:14;;;;;;;36.67;22.77;;;;;;;-147.65;100.00;57646.63;10444030;28;20163;-78
2023/09/13 09:13:14;;;;;;;39.53;25.67;;;;;;;-147.65;100.00;57646.63;10456614;28;20067;-79
2023/09/13 09:18:15;;;;;;;36.97;24.07;;;;;;;-147.65;100.00;57646.63;10462644;28;20679;-80
2023/09/13 09:23:15;;;;;;;39.25;25.02;;;;;;;-147.65;100.00;57646.63;10457348;28;20044;-80
2023/09/13 09:28:16;;;;;;;46.63;27.10;;;;;;;-147.65;100.00;57646.63;10486999;28;20131;-80
2023/09/13 09:33:24;;;;;;;7.03;4.07;;;;;;;-147.65;100.00;57646.63;10439857;28;20029;-78
2023/09/13 09:38:28;;;;;;;7.13;3.42;;;;;;;-147.65;100.00;57646.63;10471033;28;20499;-81
2023/09/13 09:43:29;;;;;;;5.65;2.58;;;;;;;-147.65;100.00;57646.63;10456549;28;20499;-79
2023/09/13 09:48:30;;;;;;;6.43;3.75;;;;;;;-147.65;100.00;57646.63;10466049;28;20162;-79
2023/09/13 09:53:30;;;;;;;3.53;2.35;;;;;;;-147.65;100.00;57646.63;10456473;28;20084;-77
2023/09/13 09:58:31;;;;;;;4.15;2.45;;;;;;;-147.65;100.00;57646.63;10456924;28;20048;-78
2023/09/13 10:03:34;;;;;;;5.07;3.38;;;;;;;-147.65;100.00;57646.63;10481050;28;20043;-78
2023/09/13 10:08:41;;;;;;;5.25;3.47;;;;;;;-147.65;100.00;57646.63;10453092;28;20055;-78
2023/09/13 10:13:44;;;;;;;6.28;3.92;;;;;;;-147.65;100.00;57646.63;10503581;28;20123;-78
2023/09/13 10:18:48;;;;;;;7.05;4.50;;;;;;;-147.65;100.00;57646.63;10476010;28;20043;-80
2023/09/13 10:23:52;;;;;;;6.07;4.20;;;;;;;-147.65;100.00;57646.63;10471123;28;20447;-78
2023/09/13 10:28:54;;;;;;;7.80;3.17;;;;;;;-147.65;100.00;57646.63;10468252;28;20785;-79
2023/09/13 10:33:58;;;;;;;4.63;2.35;;;;;;;-147.65;100.00;57646.63;10482393;28;20497;-78
2023/09/13 10:39:25;;;;;;;3.25;2.50;;;;;;;-147.65;100.00;57646.63;10394510;28;20483;-78
2023/09/13 10:44:26;;;;;;;7.13;3.28;;;;;;;-147.65;100.00;57646.63;10444933;28;20500;-78
2023/09/13 10:49:26;;;;;;;4.95;2.72;;;;;;;-147.65;100.00;57646.63;10398634;28;20045;-78
2023/09/13 10:54:27;;;;;;;6.07;3.08;;;;;;;-147.65;100.00;57646.63;10415126;28;20045;-77
2023/09/13 10:59:27;;;;;;;5.47;3.20;;;;;;;-147.65;100.00;57646.63;10446384;28;20041;-78
2023/09/13 11:04:28;;;;;;;5.65;2.85;;;;;;;-147.65;100.00;57646.63;10473129;28;20041;-77
2023/09/13 11:09:31;;;;;;;4.63;1.87;;;;;;;-147.65;100.00;57646.63;10445100;28;20639;-77
2023/09/13 11:14:32;;;;;;;3.63;1.33;;;;;;;-147.65;100.00;57646.63;10427511;28;20562;-78
2023/09/13 11:19:32;;;;;;;1.85;1.33;;;;;;;-147.65;100.00;57646.63;10442320;28;20033;-79
2023/09/13 11:24:38;;;;;;;2.92;1.80;;;;;;;-147.65;100.00;57646.63;10434491;28;20037;-77
2023/09/13 11:29:51;;;;;;;3.05;1.90;;;;;;;-147.65;100.00;57646.63;10476749;28;20052;-79
2023/09/13 11:34:55;;;;;;;2.97;1.75;;;;;;;-147.65;100.00;57646.63;10492182;28;20041;-79
2023/09/13 11:40:10;;;;;;;3.88;1.92;;;;;;;-147.65;100.00;57646.63;10476124;28;20037;-78
2023/09/13 11:45:11;;;;;;;3.42;1.77;;;;;;;-147.65;100.00;57646.63;10485814;28;20052;-79
2023/09/13 11:50:13;;;;;;;3.95;1.67;;;;;;;-147.65;100.00;57646.63;10475672;28;20172;-79
2023/09/13 11:55:13;;;;;;;;;;;;;;;-147.65;100.00;57646.63;10498201;28;20041;-78
2023/09/13 12:00:14;;;;;;;3.17;2.08;;;;;;;-147.65;100.00;57646.63;10460305;28;20288;-78
2023/09/13 12:05:15;;;;;;;4.70;1.83;;;;;;;-147.65;100.00;57646.63;10466817;28;20539;-79
2023/09/13 12:10:16;;;;;;;4.60;1.73;;;;;;;-147.65;100.00;57646.63;10458285;28;20279;-79
2023/09/13 12:15:16;;;;;;;2.93;2.10;;;;;;;-147.65;100.00;57646.63;10456277;28;20032;-79
2023/09/13 12:20:17;;;;;;;3.73;2.43;;;;;;;-147.65;100.00;57646.63;10457790;28;20102;-80
2023/09/13 12:25:17;;;;;;;2.83;1.40;;;;;;;-147.65;100.00;57646.63;10449243;28;20047;-79
2023/09/13 12:30:18;;;;;;;3.63;1.17;;;;;;;-147.65;100.00;57646.63;10457205;28;20041;-80
2023/09/13 12:35:18;;;;;;;2.27;1.23;;;;;;;-147.65;100.00;57646.63;10451788;28;20064;-80
2023/09/13 12:40:19;;;;;;;3.03;1.33;;;;;;;-147.65;100.00;57646.63;10457814;28;20068;-80
2023/09/13 12:45:20;;;;;;;3.40;0.80;;;;;;;-147.65;100.00;57646.63;10454275;28;20384;-80
2023/09/13 12:50:20;;;;;;;1.03;0.67;;;;;;;-147.65;100.00;57646.63;10458718;28;20124;-79
2023/09/13 12:55:24;;;;;;;1.57;0.57;;;;;;;-147.65;100.00;57646.63;10471398;28;20402;-81
2023/09/13 13:00:25;;;;;;;2.72;1.17;;;;;;;-147.65;100.00;57646.63;10473398;28;20534;-78
2023/09/13 13:05:26;;;;;;;1.50;1.07;;;;;;;-147.65;100.00;57646.63;10454153;28;20057;-78
2023/09/13 13:10:26;;;;;;;3.33;1.23;;;;;;;-147.65;100.00;57646.63;10441459;28;20482;-83
2023/09/13 13:15:32;;;;;;;3.33;1.73;;;;;;;-147.65;100.00;57646.63;10451135;28;20032;-79
2023/09/13 13:20:33;;;;;;;3.15;1.13;;;;;;;-147.65;100.00;57646.63;10457353;28;20033;-81
2023/09/13 13:25:33;;;;;;;6.70;1.30;;;;;;;-147.65;100.00;57646.63;10425326;28;20037;-79
2023/09/13 13:30:34;;;;;;;2.23;1.00;;;;;;;-147.65;100.00;57646.63;10458378;28;20584;-79
2023/09/13 13:35:37;;;;;;;3.43;0.97;;;;;;;-147.65;100.00;57646.63;10462540;28;20036;-80
2023/09/13 13:40:37;;;;;;;3.08;1.27;;;;;;;-147.65;100.00;57646.63;10452558;28;20040;-78
2023/09/13 13:45:38;;;;;;;2.13;1.03;;;;;;;-147.65;100.00;57646.63;10461513;28;20037;-79
2023/09/13 13:50:38;;;;;;;2.63;0.90;;;;;;;-147.65;100.00;57646.63;10466237;28;20041;-82
2023/09/13 13:55:41;;;;;;;3.40;1.10;;;;;;;-147.65;100.00;57646.63;10460546;28;20389;-81
2023/09/13 14:00:42;;;;;;;3.20;1.35;;;;;;;-147.65;100.00;57646.63;10466559;28;20117;-81
2023/09/13 14:05:42;;;;;;;8.00;1.90;;;;;;;-147.65;100.00;57646.63;10458421;28;20499;-81
2023/09/13 14:10:45;;;;;;;5.77;1.90;;;;;;;-147.65;100.00;57646.63;10454577;28;20097;-82
2023/09/13 14:15:46;;;;;;;8.07;2.78;;;;;;;-147.65;100.00;57646.63;10498491;28;20049;-81
2023/09/13 14:20:46;;;;;;;6.97;1.80;;;;;;;-147.65;100.00;57646.63;10440964;28;20511;-81
2023/09/13 14:25:47;;;;;;;3.87;2.33;;;;;;;-147.65;100.00;57646.63;10463468;28;20367;-79
2023/09/13 14:30:48;;;;;;;4.30;1.70;;;;;;;-147.65;100.00;57646.63;10466306;28;20516;-79
2023/09/13 14:35:48;;;;;;;4.53;2.30;;;;;;;-147.65;100.00;57646.63;10471680;28;20036;-79
2023/09/13 14:40:49;;;;;;;8.00;1.90;;;;;;;-147.65;100.00;57646.63;10467290;28;20123;-78
2023/09/13 14:45:49;;;;;;;6.70;1.90;;;;;;;-147.65;100.00;57646.63;10458059;28;20496;-80
2023/09/13 14:50:50;;;;;;;8.43;2.27;;;;;;;-147.65;100.00;57646.63;10447890;28;20505;-80
2023/09/13 14:55:55;;;;;;;5.93;1.80;;;;;;;-147.65;100.00;57646.63;10468243;28;20071;-80
2023/09/13 15:00:55;;;;;;;6.90;2.45;;;;;;;-147.65;100.00;57646.63;10458893;28;20044;-81
2023/09/13 15:05:56;;;;;;;4.30;1.40;;;;;;;-147.65;100.00;57646.63;10474113;28;20067;-81
2023/09/13 15:10:56;;;;;;;2.65;1.38;;;;;;;-147.65;100.00;57646.63;10411096;28;20107;-80
2023/09/13 15:15:57;;;;;;;2.83;1.23;;;;;;;-147.65;100.00;57646.63;10459748;28;20514;-80
2023/09/13 15:20:57;;;;;;;4.20;1.30;;;;;;;-147.65;100.00;57646.63;10478341;28;20044;-80
2023/09/13 15:25:58;;;;;;;4.97;1.33;;;;;;;-147.65;100.00;57646.63;10461549;28;20047;-80
2023/09/13 15:30:59;;;;;;;6.57;1.55;;;;;;;-147.65;100.00;57646.63;10497770;28;20037;-80
2023/09/13 15:35:59;;;;;;;3.80;2.00;;;;;;;-147.65;100.00;57646.63;10471036;28;20045;-80
2023/09/13 15:41:00;;;;;;;5.72;1.40;;;;;;;-147.65;100.00;57646.63;10461887;28;20051;-80
2023/09/13 15:46:00;;;;;;;1.67;1.08;;;;;;;-147.65;100.00;57646.63;10450028;28;20041;-80
2023/09/13 15:51:01;;;;;;;2.47;1.13;;;;;;;-147.65;100.00;57646.63;10466016;28;20115;-79
2023/09/13 15:56:01;;;;;;;5.97;1.63;;;;;;;-147.65;100.00;57646.63;10443382;28;20120;-80
2023/09/13 16:01:02;;;;;;;3.90;1.50;;;;;;;-147.65;100.00;57646.63;10445316;28;20037;-80
2023/09/13 16:06:03;;;;;;;5.88;1.55;;;;;;;-147.65;100.00;57646.63;10458030;28;20048;-83
2023/09/13 16:11:03;;;;;;;4.13;1.40;;;;;;;-147.65;100.00;57646.63;10437768;28;20237;-82
2023/09/13 16:16:07;;;;;;;4.22;2.03;;;;;;;-147.65;100.00;57646.63;10466325;28;20497;-81
2023/09/13 16:21:07;;;;;;;7.20;2.28;;;;;;;-147.65;100.00;57646.63;10464706;28;20052;-80
2023/09/13 16:26:08;;;;;;;9.13;1.75;;;;;;;-147.65;100.00;57646.63;10460209;28;20079;-80
2023/09/13 16:31:09;;;;;;;3.92;1.80;;;;;;;-147.65;100.00;57646.63;10471102;28;20131;-81
2023/09/13 16:36:09;;;;;;;4.65;2.42;;;;;;;-147.65;100.00;57646.63;10455506;28;20075;-81
2023/09/13 16:41:10;;;;;;;4.95;1.90;;;;;;;-147.65;100.00;57646.63;10483555;28;20489;-81
2023/09/13 16:46:10;;;;;;;6.95;2.45;;;;;;;-147.65;100.00;57646.63;10462130;28;20085;-81
2023/09/13 16:51:11;;;;;;;5.07;2.25;;;;;;;-147.65;100.00;57646.63;10455258;28;20040;-80
2023/09/13 16:56:11;;;;;;;14.20;2.00;;;;;;;-147.65;100.00;57646.63;10458530;28;20083;-80
2023/09/13 17:01:12;;;;;;;6.78;2.83;;;;;;;-147.65;100.00;57646.63;10445819;28;20431;-80
2023/09/13 17:06:13;;;;;;;4.90;2.85;;;;;;;-147.65;100.00;57646.63;10437427;28;20497;-80
2023/09/13 17:11:15;;;;;;;4.43;1.70;;;;;;;-147.65;100.00;57646.63;10465221;28;20040;-82
2023/09/13 17:16:16;;;;;;;5.22;2.13;;;;;;;-147.65;100.00;57646.63;10436165;28;20272;-81
2023/09/13 17:21:17;;;;;;;5.28;2.42;;;;;;;-147.65;100.00;57646.63;10430623;28;20547;-81
2023/09/13 17:26:17;;;;;;;10.23;2.40;;;;;;;-147.65;100.00;57646.63;10458478;28;20441;-81
2023/09/13 17:31:18;;;;;;;8.35;2.95;;;;;;;-147.65;100.00;57646.63;10423542;28;20044;-80
2023/09/13 17:36:18;;;;;;;5.60;1.92;;;;;;;-147.65;100.00;57646.63;10453573;28;20190;-81
2023/09/13 17:41:19;;;;;;;11.60;2.72;;;;;;;-147.65;100.00;57646.63;10467989;28;20426;-81
2023/09/13 17:46:19;;;;;;;4.95;3.20;;;;;;;-147.65;100.00;57646.63;10455434;28;20045;-81
2023/09/13 17:51:23;;;;;;;4.55;2.05;;;;;;;-147.65;100.00;57646.63;10462732;28;20047;-81
2023/09/13 17:56:25;;;;;;;6.85;2.72;;;;;;;-147.65;100.00;57646.63;10419024;28;20041;-81
2023/09/13 18:01:25;;;;;;;7.47;1.70;;;;;;;-147.65;100.00;57646.63;10445708;28;20401;-81
2023/09/13 18:06:26;;;;;;;5.18;3.03;;;;;;;-147.65;100.00;57646.63;10464765;28;20028;-82
2023/09/13 18:11:26;;;;;;;7.40;2.85;;;;;;;-147.65;100.00;57646.63;10464152;28;20191;-81
2023/09/13 18:16:28;;;;;;;8.27;2.85;;;;;;;-147.65;100.00;57646.63;10441881;28;20037;-81
2023/09/13 18:21:28;;;;;;;7.23;2.20;;;;;;;-147.65;100.00;57646.63;10445846;28;20115;-81
2023/09/13 18:26:29;;;;;;;6.03;3.42;;;;;;;-147.65;100.00;57646.63;10459733;28;20037;-82
2023/09/13 18:31:29;;;;;;;9.73;2.35;;;;;;;-147.65;100.00;57646.63;10468014;28;20058;-82
2023/09/13 18:36:30;;;;;;;7.57;3.70;;;;;;;-147.65;100.00;57646.63;10436509;28;25147;-81
2023/09/13 18:41:31;;;;;;;17.30;4.47;;;;;;;-147.65;100.00;57646.63;10472709;28;20041;-82
2023/09/13 18:46:31;;;;;;;5.30;2.80;;;;;;;-147.65;100.00;57646.63;10463457;28;20128;-81
2023/09/13 18:51:33;;;;;;;11.35;6.22;;;;;;;-147.65;100.00;57646.63;10468706;28;20060;-81
2023/09/13 18:56:33;;;;;;;6.13;3.25;;;;;;;-147.65;100.00;57646.63;10461082;28;20130;-81
2023/09/13 19:01:34;;;;;;;6.05;3.35;;;;;;;-147.65;100.00;57646.63;10470590;28;20039;-81
2023/09/13 19:06:35;;;;;;;8.65;3.95;;;;;;;-147.65;100.00;57646.63;10443803;28;20052;-81
2023/09/13 19:11:37;;;;;;;14.95;5.72;;;;;;;-147.65;100.00;57646.63;10459310;28;20044;-81
2023/09/13 19:16:37;;;;;;;7.43;3.95;;;;;;;-147.65;100.00;57646.63;10465494;28;20036;-81
2023/09/13 19:21:38;;;;;;;11.32;3.88;;;;;;;-147.65;100.00;57646.63;10447257;28;20067;-83
2023/09/13 19:26:39;;;;;;;10.65;3.60;;;;;;;-147.65;100.00;57646.63;10414017;28;20041;-80
2023/09/13 19:31:40;;;;;;;21.33;5.32;;;;;;;-147.65;100.00;57646.63;10417952;28;20041;-82
2023/09/13 19:36:41;;;;;;;9.75;4.47;;;;;;;-147.65;100.00;57646.63;10439561;28;20467;-78
2023/09/13 19:41:41;;;;;;;8.90;5.13;;;;;;;-147.65;100.00;57646.63;10441072;28;20041;-79
2023/09/13 19:46:43;;;;;;;15.48;6.80;;;;;;;-147.65;100.00;57646.63;10457370;28;20040;-79
2023/09/13 19:51:43;;;;;;;8.73;4.13;;;;;;;-147.65;100.00;57646.63;10446066;28;20044;-79
2023/09/13 19:56:44;;;;;;;10.32;5.05;;;;;;;-147.65;100.00;57646.63;10435886;28;20037;-79
2023/09/13 20:01:44;;;;;;;10.38;6.10;;;;;;;-147.65;100.00;57646.63;10478244;28;20401;-79
2023/09/13 20:06:45;;;;;;;11.20;6.15;;;;;;;-147.65;100.00;57646.63;10457300;28;20039;-78
2023/09/13 20:11:53;;;;;;;14.38;4.68;;;;;;;-147.65;100.00;57646.63;10445507;28;20144;-79
2023/09/13 20:16:53;;;;;;;9.40;4.85;;;;;;;-147.65;100.00;57646.63;10464558;28;20036;-79
2023/09/13 20:21:54;;;;;;;8.75;5.20;;;;;;;-147.65;100.00;57646.63;10485827;28;20032;-79
2023/09/13 20:26:54;;;;;;;13.02;6.43;;;;;;;-147.65;100.00;57646.63;10470776;28;20174;-79
2023/09/13 20:31:55;;;;;;;17.45;6.20;;;;;;;-147.65;100.00;57646.63;10484743;28;20040;-79
2023/09/13 20:36:55;;;;;;;10.00;5.10;;;;;;;-147.65;100.00;57646.63;10456600;28;20059;-78
2023/09/13 20:41:56;;;;;;;9.63;6.03;;;;;;;-147.65;100.00;57646.63;10426376;28;20037;-78
2023/09/13 20:46:58;;;;;;;13.32;6.53;;;;;;;-147.65;100.00;57646.63;10439206;28;20041;-77
2023/09/13 20:51:59;;;;;;;17.42;8.70;;;;;;;-147.65;100.00;57646.63;10425036;28;20033;-78
2023/09/13 20:56:59;;;;;;;17.38;9.43;;;;;;;-147.65;100.00;57646.63;10417945;28;20044;-78
2023/09/13 21:02:00;;;;;;;13.35;8.93;;;;;;;-147.65;100.00;57646.63;10408774;28;20041;-79
2023/09/13 21:07:00;;;;;;;11.38;6.88;;;;;;;-147.65;100.00;57646.63;10444901;28;20396;-78
2023/09/13 21:12:01;;;;;;;13.20;8.85;;;;;;;-147.65;100.00;57646.63;10442000;28;20029;-79
2023/09/13 21:17:02;;;;;;;15.45;8.57;;;;;;;-147.65;100.00;57646.63;10443778;28;20105;-78
2023/09/13 21:22:02;;;;;;;14.90;9.52;;;;;;;-147.65;100.00;57646.63;10440821;28;20041;-78
2023/09/13 21:27:03;;;;;;;15.32;11.35;;;;;;;-147.65;100.00;57646.63;10441589;28;20131;-78
2023/09/13 21:32:04;;;;;;;13.48;9.45;;;;;;;-147.65;100.00;57646.63;10441860;28;20065;-78
2023/09/13 21:37:05;;;;;;;13.00;9.27;;;;;;;-147.65;100.00;57646.63;10441583;28;20040;-77
2023/09/13 21:42:05;;;;;;;24.42;12.27;;;;;;;-147.65;100.00;57646.63;10445656;28;20036;-77
2023/09/13 21:47:06;;;;;;;20.92;12.40;;;;;;;-147.65;100.00;57646.63;10420985;28;20061;-77
2023/09/13 21:52:06;;;;;;;17.48;10.27;;;;;;;-147.65;100.00;57646.63;10433112;28;20117;-77
2023/09/13 21:57:07;;;;;;;17.63;10.45;;;;;;;-147.65;100.00;57646.63;10466134;28;20041;-78
2023/09/13 22:02:07;;;;;;;17.63;9.95;;;;;;;-147.65;100.00;57646.63;10484225;28;20041;-77
2023/09/13 22:07:08;;;;;;;16.45;10.52;;;;;;;-147.65;100.00;57646.63;10426513;28;20044;-77
2023/09/13 22:12:09;;;;;;;21.98;12.57;;;;;;;-147.65;100.00;57646.63;10442949;28;20053;-78